createdAt,value
2023-03-02T00:00:16.773Z,2.57
2023-03-02T00:03:20.640Z,2.69
2023-03-02T00:06:23.764Z,2.83
2023-03-02T00:09:28.558Z,2.85
2023-03-02T00:12:33.183Z,2.90
2023-03-02T00:15:36.382Z,2.89
2023-03-02T00:18:39.237Z,2.79
2023-03-02T00:21:42.550Z,2.77
2023-03-02T00:24:45.405Z,2.68
2023-03-02T00:27:48.429Z,2.66
2023-03-02T00:30:51.476Z,2.60
2023-03-02T00:33:54.844Z,2.59
2023-03-02T00:36:58.335Z,2.63
2023-03-02T00:40:01.412Z,2.67
2023-03-02T00:43:04.493Z,2.67
2023-03-02T00:46:22.431Z,2.59
2023-03-02T00:49:25.698Z,2.53
2023-03-02T00:52:33.334Z,2.58
2023-03-02T00:55:37.960Z,2.58
2023-03-02T00:58:41.390Z,2.72
2023-03-02T01:01:44.624Z,2.68
2023-03-02T01:04:53.403Z,2.63
2023-03-02T01:07:56.283Z,2.60
2023-03-02T01:11:01.579Z,2.41
2023-03-02T01:14:05.525Z,2.31
2023-03-02T01:17:10.809Z,2.32
2023-03-02T01:20:14.037Z,2.28
2023-03-02T01:23:18.680Z,2.33
2023-03-02T01:26:21.461Z,2.43
2023-03-02T01:29:25.688Z,2.68
2023-03-02T01:32:29.326Z,2.83
2023-03-02T01:35:32.517Z,2.93
2023-03-02T01:38:36.012Z,3.02
2023-03-02T01:41:39.169Z,3.02
2023-03-02T01:44:47.843Z,3.00
2023-03-02T01:47:51.268Z,2.89
2023-03-02T01:50:55.492Z,2.94
2023-03-02T01:54:17.414Z,2.87
2023-03-02T01:57:24.838Z,2.66
2023-03-02T02:00:31.993Z,2.65
2023-03-02T02:03:35.395Z,2.60
2023-03-02T02:06:43.058Z,2.48
2023-03-02T02:09:49.997Z,2.64
2023-03-02T02:12:53.114Z,2.50
2023-03-02T02:15:56.326Z,2.44
2023-03-02T02:19:01.729Z,2.35
2023-03-02T02:22:04.945Z,2.14
2023-03-02T02:25:19.933Z,1.95
2023-03-02T02:28:31.791Z,1.53
2023-03-02T02:31:51.467Z,1.46
2023-03-02T02:35:05.692Z,1.63
2023-03-02T02:38:12.292Z,1.77
2023-03-02T02:41:21.573Z,1.82
2023-03-02T02:44:25.676Z,1.86
2023-03-02T02:47:30.014Z,1.87
2023-03-02T02:50:35.418Z,1.93
2023-03-02T02:53:47.647Z,1.74
2023-03-02T02:56:52.621Z,1.69
2023-03-02T02:59:59.160Z,1.75
2023-03-02T03:03:29.387Z,1.80
2023-03-02T03:06:42.225Z,1.73
2023-03-02T03:09:52.417Z,1.65
2023-03-02T03:12:56.948Z,1.61
2023-03-02T03:16:03.902Z,1.52
2023-03-02T03:19:21.265Z,1.46
2023-03-02T03:22:24.201Z,1.37
2023-03-02T03:25:28.969Z,1.37
2023-03-02T03:28:33.190Z,1.32
2023-03-02T03:31:37.080Z,1.31
2023-03-02T03:34:42.994Z,1.24
2023-03-02T03:37:48.505Z,1.16
2023-03-02T03:40:52.505Z,1.51
2023-03-02T03:43:56.018Z,1.43
2023-03-02T03:47:00.077Z,1.66
2023-03-02T03:50:04.389Z,1.65
2023-03-02T03:53:07.843Z,1.70
2023-03-02T03:56:11.179Z,1.77
2023-03-02T03:59:20.559Z,1.89
2023-03-02T04:02:24.292Z,1.86
2023-03-02T04:05:27.575Z,1.97
2023-03-02T04:08:30.499Z,1.94
2023-03-02T04:11:35.922Z,1.74
2023-03-02T04:14:39.366Z,1.79
2023-03-02T04:17:45.031Z,1.79
2023-03-02T04:20:49.692Z,1.65
2023-03-02T04:23:52.926Z,1.63
2023-03-02T04:26:56.401Z,1.42
2023-03-02T04:29:59.944Z,1.25
2023-03-02T04:33:03.169Z,1.11
2023-03-02T04:36:07.073Z,0.91
2023-03-02T04:39:12.707Z,0.72
2023-03-02T04:42:16.407Z,0.60
2023-03-02T04:45:19.475Z,0.45
2023-03-02T04:48:22.996Z,0.27
2023-03-02T04:51:29.484Z,0.03
2023-03-02T04:54:33.916Z,-0.04
2023-03-02T04:57:37.062Z,-0.23
2023-03-02T05:00:41.030Z,-0.39
2023-03-02T05:03:44.161Z,-0.59
2023-03-02T05:06:47.461Z,-0.78
2023-03-02T05:09:50.361Z,-1.05
2023-03-02T05:13:05.028Z,-1.12
2023-03-02T05:16:08.312Z,-1.25
2023-03-02T05:19:12.865Z,-1.44
2023-03-02T05:22:15.688Z,-1.60
2023-03-02T05:25:18.836Z,-1.71
2023-03-02T05:28:24.443Z,-1.74
2023-03-02T05:31:32.279Z,-1.81
2023-03-02T05:34:35.189Z,-1.83
2023-03-02T05:37:41.721Z,-1.85
2023-03-02T05:40:44.540Z,-1.91
2023-03-02T05:43:48.196Z,-1.73
2023-03-02T05:46:51.057Z,-1.70
2023-03-02T05:49:54.265Z,-1.57
2023-03-02T05:52:58.551Z,-1.40
2023-03-02T05:56:01.840Z,-1.26
2023-03-02T05:59:04.672Z,-1.11
2023-03-02T06:02:07.878Z,-0.94
2023-03-02T06:05:13.680Z,-0.72
2023-03-02T06:08:18.178Z,0.33
2023-03-02T06:11:22.281Z,1.86
2023-03-02T06:14:25.120Z,3.25
2023-03-02T06:17:28.321Z,4.46
2023-03-02T06:20:31.552Z,5.40
2023-03-02T06:23:34.988Z,5.96
2023-03-02T06:26:37.747Z,6.82
2023-03-02T06:29:41.131Z,6.99
2023-03-02T06:32:44.245Z,8.21
2023-03-02T06:35:48.882Z,9.08
2023-03-02T06:38:51.821Z,10.29
2023-03-02T06:41:55.070Z,11.23
2023-03-02T06:44:57.863Z,12.39
2023-03-02T06:48:01.680Z,12.69
2023-03-02T06:51:04.940Z,12.98
2023-03-02T06:54:08.407Z,13.20
2023-03-02T06:57:11.400Z,14.33
2023-03-02T07:00:18.016Z,12.41
2023-03-02T07:03:24.863Z,13.29
2023-03-02T07:06:28.252Z,13.61
2023-03-02T07:09:34.206Z,14.79
2023-03-02T07:12:37.303Z,16.34
2023-03-02T07:15:40.629Z,16.96
2023-03-02T07:18:43.825Z,16.87
2023-03-02T07:21:46.581Z,15.75
2023-03-02T07:24:49.708Z,11.98
2023-03-02T07:27:52.621Z,11.37
2023-03-02T07:30:55.907Z,9.51
2023-03-02T07:33:58.654Z,8.50
2023-03-02T07:37:01.860Z,10.19
2023-03-02T07:40:06.763Z,11.94
2023-03-02T07:43:10.893Z,11.22
2023-03-02T07:46:13.551Z,13.82
2023-03-02T07:49:16.752Z,9.86
2023-03-02T07:52:19.592Z,8.63
2023-03-02T07:55:23.068Z,8.96
2023-03-02T07:58:25.955Z,8.37
2023-03-02T08:01:29.239Z,12.03
2023-03-02T08:04:34.903Z,12.56
2023-03-02T08:07:37.909Z,11.47
2023-03-02T08:10:41.541Z,11.61
2023-03-02T08:13:45.792Z,12.16
2023-03-02T08:16:48.934Z,12.92
2023-03-02T08:19:51.920Z,10.53
2023-03-02T08:22:55.084Z,9.35
2023-03-02T08:25:57.799Z,12.57
2023-03-02T08:29:01.257Z,15.45
2023-03-02T08:32:04.573Z,14.14
2023-03-02T08:35:08.328Z,15.39
2023-03-02T08:38:11.454Z,12.35
2023-03-02T08:41:22.642Z,9.93
2023-03-02T08:44:25.769Z,9.35
2023-03-02T08:47:28.869Z,9.08
2023-03-02T08:50:33.239Z,8.26
2023-03-02T08:53:39.809Z,8.37
2023-03-02T08:56:44.506Z,8.23
2023-03-02T08:59:47.669Z,8.14
2023-03-02T09:02:50.389Z,7.43
2023-03-02T09:05:54.756Z,7.50
2023-03-02T09:08:58.156Z,7.37
2023-03-02T09:12:01.361Z,7.36
2023-03-02T09:15:04.456Z,7.08
2023-03-02T09:18:07.532Z,7.04
2023-03-02T09:21:10.762Z,6.90
2023-03-02T09:24:13.813Z,7.22
2023-03-02T09:27:16.732Z,7.57
2023-03-02T09:30:20.702Z,7.91
2023-03-02T09:33:27.093Z,7.89
2023-03-02T09:36:32.799Z,7.92
2023-03-02T09:39:37.537Z,7.91
2023-03-02T09:43:05.807Z,7.54
2023-03-02T09:46:26.925Z,7.59
2023-03-02T09:50:00.548Z,7.54
2023-03-02T09:53:22.302Z,7.43
2023-03-02T09:56:25.415Z,7.45
2023-03-02T09:59:33.407Z,7.43
2023-03-02T10:02:49.675Z,7.71
2023-03-02T10:05:54.528Z,7.55
2023-03-02T10:08:57.570Z,7.72
2023-03-02T10:12:21.522Z,7.39
2023-03-02T10:15:30.064Z,7.90
2023-03-02T10:18:42.626Z,7.95
2023-03-02T10:22:14.461Z,7.58
2023-03-02T10:25:22.361Z,7.91
2023-03-02T10:28:32.883Z,7.65
2023-03-02T10:31:40.212Z,7.94
2023-03-02T10:34:43.141Z,7.97
2023-03-02T10:37:46.136Z,7.95
2023-03-02T10:41:02.530Z,8.14
2023-03-02T10:44:30.438Z,8.20
2023-03-02T10:47:33.313Z,8.26
2023-03-02T10:50:37.612Z,8.22
2023-03-02T10:53:40.375Z,8.21
2023-03-02T10:56:49.328Z,8.20
2023-03-02T10:59:52.824Z,8.28
2023-03-02T11:03:01.919Z,8.29
2023-03-02T11:06:19.375Z,8.27
2023-03-02T11:09:22.971Z,8.61
2023-03-02T11:12:26.397Z,8.48
2023-03-02T11:15:32.144Z,8.28
2023-03-02T11:18:40.258Z,8.45
2023-03-02T11:21:59.638Z,8.42
2023-03-02T11:25:08.362Z,8.29
2023-03-02T11:28:29.045Z,8.60
2023-03-02T11:31:58.942Z,8.58
2023-03-02T11:35:22.133Z,8.53
2023-03-02T11:38:47.372Z,8.54
2023-03-02T11:41:50.771Z,8.93
2023-03-02T11:44:53.641Z,9.27
2023-03-02T11:48:03.240Z,8.78
2023-03-02T11:51:21.607Z,8.93
2023-03-02T11:54:46.170Z,9.19
2023-03-02T12:01:24.169Z,9.48
2023-03-02T12:04:35.158Z,9.68
2023-03-02T12:07:38.016Z,9.82
2023-03-02T12:10:45.510Z,9.62
2023-03-02T12:14:04.413Z,9.56
2023-03-02T12:17:31.180Z,9.68
2023-03-02T12:20:34.479Z,9.64
2023-03-02T12:23:44.269Z,9.55
2023-03-02T12:26:47.098Z,9.39
2023-03-02T12:29:51.413Z,9.27
2023-03-02T12:33:05.699Z,9.23
2023-03-02T12:36:15.844Z,9.49
2023-03-02T12:39:37.047Z,9.30
2023-03-02T12:42:55.214Z,9.15
2023-03-02T12:46:32.555Z,9.33
2023-03-02T12:50:04.933Z,9.21
2023-03-02T12:53:17.715Z,9.39
2023-03-02T12:56:27.616Z,9.03
2023-03-02T12:59:30.776Z,9.26
2023-03-02T13:02:36.377Z,8.99
2023-03-02T13:05:39.252Z,8.61
2023-03-02T13:08:48.355Z,8.72
2023-03-02T13:11:54.824Z,8.76
2023-03-02T13:14:59.459Z,8.56
2023-03-02T13:18:02.426Z,8.66
2023-03-02T13:21:06.290Z,8.64
2023-03-02T13:24:30.951Z,8.51
2023-03-02T13:27:34.856Z,8.39
2023-03-02T13:30:47.867Z,8.59
2023-03-02T13:33:53.656Z,8.33
2023-03-02T13:36:56.736Z,8.56
2023-03-02T13:40:02.948Z,8.27
2023-03-02T13:43:20.293Z,8.22
2023-03-02T13:46:35.938Z,8.40
2023-03-02T13:49:38.993Z,8.36
2023-03-02T13:52:42.084Z,8.39
2023-03-02T13:55:44.887Z,8.41
2023-03-02T13:58:47.993Z,8.52
2023-03-02T14:01:51.376Z,8.45
2023-03-02T14:04:55.170Z,8.43
2023-03-02T14:08:02.857Z,8.19
2023-03-02T14:11:07.336Z,8.56
2023-03-02T14:14:16.426Z,8.44
2023-03-02T14:17:23.963Z,8.72
2023-03-02T14:20:29.506Z,8.56
2023-03-02T14:23:32.836Z,8.81
2023-03-02T14:26:43.613Z,8.79
2023-03-02T14:29:47.467Z,8.71
2023-03-02T14:32:51.227Z,8.39
2023-03-02T14:35:56.560Z,8.67
2023-03-02T14:39:03.632Z,8.83
2023-03-02T14:42:12.257Z,8.78
2023-03-02T14:45:15.110Z,8.59
2023-03-02T14:48:18.534Z,8.65
2023-03-02T14:51:26.802Z,8.60
2023-03-02T14:54:43.246Z,8.74
2023-03-02T14:57:52.070Z,8.44
2023-03-02T15:00:55.761Z,8.30
2023-03-02T15:03:58.622Z,8.46
2023-03-02T15:07:01.790Z,8.50
2023-03-02T15:10:06.067Z,8.44
2023-03-02T15:13:10.913Z,8.50
2023-03-02T15:16:14.316Z,8.35
2023-03-02T15:19:17.512Z,8.28
2023-03-02T15:22:20.479Z,8.17
2023-03-02T15:25:25.990Z,8.06
2023-03-02T15:28:29.180Z,8.07
2023-03-02T15:31:33.796Z,8.05
2023-03-02T15:34:36.819Z,7.87
2023-03-02T15:37:39.996Z,7.74
2023-03-02T15:40:43.763Z,7.78
2023-03-02T15:43:52.224Z,7.57
2023-03-02T15:46:57.087Z,7.55
2023-03-02T15:50:00.422Z,7.54
2023-03-02T15:53:03.701Z,7.60
2023-03-02T15:56:15.902Z,7.49
2023-03-02T15:59:20.551Z,7.44
2023-03-02T16:02:23.780Z,7.39
2023-03-02T16:05:27.022Z,7.36
2023-03-02T16:08:29.794Z,7.29
2023-03-02T16:11:33.035Z,7.25
2023-03-02T16:14:35.768Z,7.17
2023-03-02T16:17:38.913Z,7.13
2023-03-02T16:20:43.290Z,7.00
2023-03-02T16:23:47.459Z,6.96
2023-03-02T16:26:53.329Z,6.84
2023-03-02T16:29:56.657Z,6.78
2023-03-02T16:33:02.038Z,6.69
2023-03-02T16:36:07.016Z,6.57
2023-03-02T16:39:11.381Z,6.45
2023-03-02T16:42:14.685Z,6.38
2023-03-02T16:45:19.794Z,6.26
2023-03-02T16:48:23.197Z,6.20
2023-03-02T16:51:26.218Z,6.15
2023-03-02T16:54:29.388Z,6.10
2023-03-02T16:57:32.144Z,6.09
2023-03-02T17:00:36.324Z,5.99
2023-03-02T17:03:39.458Z,6.00
2023-03-02T17:06:59.988Z,5.96
2023-03-02T17:10:04.635Z,6.00
2023-03-02T17:13:09.620Z,5.99
2023-03-02T17:16:12.420Z,5.96
2023-03-02T17:19:15.392Z,5.96
2023-03-02T17:22:18.327Z,5.96
2023-03-02T17:25:22.011Z,5.94
2023-03-02T17:28:24.783Z,5.91
2023-03-02T17:31:27.971Z,5.89
2023-03-02T17:34:31.441Z,5.86
2023-03-02T17:37:35.174Z,5.77
2023-03-02T17:40:38.704Z,5.76
2023-03-02T17:43:42.849Z,5.73
2023-03-02T17:46:45.805Z,5.63
2023-03-02T17:49:48.895Z,5.73
2023-03-02T17:52:51.962Z,5.70
2023-03-02T17:55:55.016Z,5.68
2023-03-02T17:59:01.418Z,5.61
2023-03-02T18:02:04.597Z,5.56
2023-03-02T18:05:10.109Z,5.46
2023-03-02T18:08:12.883Z,5.44
2023-03-02T18:11:18.637Z,5.35
2023-03-02T18:14:21.735Z,5.30
2023-03-02T18:17:24.661Z,5.32
2023-03-02T18:20:28.499Z,5.22
2023-03-02T18:23:32.314Z,5.16
2023-03-02T18:26:35.139Z,5.06
2023-03-02T18:29:38.246Z,5.00
2023-03-02T18:32:40.966Z,4.93
2023-03-02T18:35:44.000Z,4.86
2023-03-02T18:38:47.166Z,4.72
2023-03-02T18:41:50.082Z,4.63
2023-03-02T18:44:52.830Z,4.51
2023-03-02T18:47:56.498Z,4.46
2023-03-02T18:50:59.766Z,4.38
2023-03-02T18:54:03.323Z,4.36
2023-03-02T18:57:07.386Z,4.34
2023-03-02T19:00:16.026Z,4.35
2023-03-02T19:03:20.418Z,4.35
2023-03-02T19:06:23.542Z,4.31
2023-03-02T19:09:26.781Z,4.28
2023-03-02T19:12:30.120Z,4.25
2023-03-02T19:15:34.985Z,4.23
2023-03-02T19:18:38.336Z,4.17
2023-03-02T19:21:41.144Z,4.18
2023-03-02T19:24:45.738Z,4.10
2023-03-02T19:27:48.771Z,4.02
2023-03-02T19:30:52.124Z,3.91
2023-03-02T19:33:55.044Z,3.73
2023-03-02T19:36:58.024Z,3.66
2023-03-02T19:40:01.255Z,3.50
2023-03-02T19:43:05.262Z,3.35
2023-03-02T19:46:10.709Z,3.20
2023-03-02T19:49:13.882Z,3.04
2023-03-02T19:52:16.713Z,2.86
2023-03-02T19:55:21.861Z,2.64
2023-03-02T19:58:24.567Z,2.52
2023-03-02T20:01:29.762Z,2.42
2023-03-02T20:04:33.780Z,2.32
2023-03-02T20:07:38.679Z,2.12
2023-03-02T20:10:46.689Z,2.04
2023-03-02T20:13:50.644Z,2.03
2023-03-02T20:16:53.711Z,2.17
2023-03-02T20:19:57.275Z,2.24
2023-03-02T20:23:00.418Z,2.26
2023-03-02T20:26:04.303Z,2.43
2023-03-02T20:29:08.586Z,2.55
2023-03-02T20:32:12.840Z,2.70
2023-03-02T20:35:16.233Z,2.84
2023-03-02T20:38:24.757Z,2.90
2023-03-02T20:41:28.760Z,2.85
2023-03-02T20:44:31.483Z,2.85
2023-03-02T20:47:34.624Z,2.93
2023-03-02T20:50:39.971Z,2.94
2023-03-02T20:53:43.626Z,2.98
2023-03-02T20:56:46.364Z,3.02
2023-03-02T20:59:49.564Z,3.06
2023-03-02T21:02:52.490Z,3.13
2023-03-02T21:05:56.204Z,3.18
2023-03-02T21:09:00.200Z,3.22
2023-03-02T21:12:05.586Z,3.27
2023-03-02T21:15:09.575Z,3.34
2023-03-02T21:18:12.683Z,3.42
2023-03-02T21:21:16.645Z,3.48
2023-03-02T21:24:20.729Z,3.52
2023-03-02T21:27:23.412Z,3.51
2023-03-02T21:30:31.135Z,3.63
2023-03-02T21:33:34.024Z,3.58
2023-03-02T21:36:36.979Z,3.69
2023-03-02T21:39:39.712Z,3.72
2023-03-02T21:42:42.741Z,3.79
2023-03-02T21:45:45.466Z,3.85
2023-03-02T21:48:49.913Z,3.88
2023-03-02T21:51:52.637Z,3.88
2023-03-02T21:54:55.546Z,3.81
2023-03-02T21:57:58.962Z,3.92
2023-03-02T22:01:02.005Z,3.88
2023-03-02T22:04:05.533Z,4.00
2023-03-02T22:07:08.434Z,4.01
2023-03-02T22:10:45.243Z,4.03
2023-03-02T22:13:50.080Z,4.03
2023-03-02T22:16:53.215Z,4.03
2023-03-02T22:19:55.953Z,4.04
2023-03-02T22:22:59.377Z,4.06
2023-03-02T22:26:16.007Z,4.06
2023-03-02T22:29:24.316Z,4.09
2023-03-02T22:32:35.389Z,4.03
2023-03-02T22:35:38.396Z,4.12
2023-03-02T22:38:48.666Z,4.14
2023-03-02T22:41:58.631Z,4.17
2023-03-02T22:45:23.043Z,4.19
2023-03-02T22:48:29.393Z,4.21
2023-03-02T22:51:34.339Z,4.16
2023-03-02T22:54:38.096Z,4.25
2023-03-02T22:57:42.422Z,4.25
2023-03-02T23:00:47.927Z,4.26
2023-03-02T23:03:53.910Z,4.24
2023-03-02T23:07:00.146Z,4.28
2023-03-02T23:10:02.874Z,4.20
2023-03-02T23:13:05.964Z,4.29
2023-03-02T23:16:18.895Z,4.31
2023-03-02T23:19:22.609Z,4.30
2023-03-02T23:22:28.617Z,4.33
2023-03-02T23:25:31.651Z,4.26
2023-03-02T23:28:34.412Z,4.35
2023-03-02T23:31:38.193Z,4.38
2023-03-02T23:34:40.941Z,4.36
2023-03-02T23:37:44.917Z,4.28
2023-03-02T23:40:47.549Z,4.37
2023-03-02T23:43:50.454Z,4.26
2023-03-02T23:46:56.975Z,4.38
2023-03-02T23:50:00.083Z,4.37
2023-03-02T23:53:02.786Z,4.37
2023-03-02T23:56:06.301Z,4.38
2023-03-02T23:59:09.056Z,4.40
